sensor_id;sensor_type;location;lat;lon;timestamp;P1;durP1;ratioP1;P2;durP2;ratioP2
76900;SDS011;65859;43.020;25.096;2023-04-06T00:00:06;10.88;;;8.95;;
76900;SDS011;65859;43.020;25.096;2023-04-06T00:02:34;10.45;;;7.95;;
76900;SDS011;65859;43.020;25.096;2023-04-06T00:05:01;9.75;;;7.82;;
76900;SDS011;65859;43.020;25.096;2023-04-06T00:07:27;10.80;;;8.80;;
76900;SDS011;65859;43.020;25.096;2023-04-06T00:09:54;10.52;;;8.20;;
76900;SDS011;65859;43.020;25.096;2023-04-06T00:12:21;11.27;;;8.02;;
76900;SDS011;65859;43.020;25.096;2023-04-06T00:14:47;10.57;;;8.60;;
76900;SDS011;65859;43.020;25.096;2023-04-06T00:17:13;8.55;;;7.65;;
76900;SDS011;65859;43.020;25.096;2023-04-06T00:19:40;10.63;;;8.10;;
76900;SDS011;65859;43.020;25.096;2023-04-06T00:22:06;10.00;;;8.63;;
76900;SDS011;65859;43.020;25.096;2023-04-06T00:24:32;11.85;;;8.57;;
76900;SDS011;65859;43.020;25.096;2023-04-06T00:26:59;10.27;;;8.57;;
76900;SDS011;65859;43.020;25.096;2023-04-06T00:29:27;11.13;;;8.77;;
76900;SDS011;65859;43.020;25.096;2023-04-06T00:31:53;10.35;;;8.38;;
76900;SDS011;65859;43.020;25.096;2023-04-06T00:34:20;8.30;;;7.43;;
76900;SDS011;65859;43.020;25.096;2023-04-06T00:36:46;9.18;;;7.38;;
76900;SDS011;65859;43.020;25.096;2023-04-06T00:39:12;10.40;;;7.07;;
76900;SDS011;65859;43.020;25.096;2023-04-06T00:41:39;8.20;;;7.05;;
76900;SDS011;65859;43.020;25.096;2023-04-06T00:44:11;10.25;;;7.43;;
76900;SDS011;65859;43.020;25.096;2023-04-06T00:46:38;8.45;;;6.85;;
76900;SDS011;65859;43.020;25.096;2023-04-06T00:49:04;9.48;;;7.25;;
76900;SDS011;65859;43.020;25.096;2023-04-06T00:51:30;8.43;;;7.38;;
76900;SDS011;65859;43.020;25.096;2023-04-06T00:53:57;9.57;;;7.55;;
76900;SDS011;65859;43.020;25.096;2023-04-06T00:56:23;10.40;;;8.02;;
76900;SDS011;65859;43.020;25.096;2023-04-06T00:58:51;11.60;;;8.70;;
76900;SDS011;65859;43.020;25.096;2023-04-06T01:01:19;10.00;;;8.48;;
76900;SDS011;65859;43.020;25.096;2023-04-06T01:03:45;10.85;;;9.20;;
76900;SDS011;65859;43.020;25.096;2023-04-06T01:06:14;11.85;;;9.38;;
76900;SDS011;65859;43.020;25.096;2023-04-06T01:08:41;11.32;;;9.32;;
76900;SDS011;65859;43.020;25.096;2023-04-06T01:11:07;12.40;;;9.55;;
76900;SDS011;65859;43.020;25.096;2023-04-06T01:13:34;14.63;;;10.38;;
76900;SDS011;65859;43.020;25.096;2023-04-06T01:16:00;11.75;;;9.82;;
76900;SDS011;65859;43.020;25.096;2023-04-06T01:18:27;11.65;;;9.15;;
76900;SDS011;65859;43.020;25.096;2023-04-06T01:20:54;12.05;;;9.30;;
76900;SDS011;65859;43.020;25.096;2023-04-06T01:23:20;16.70;;;10.20;;
76900;SDS011;65859;43.020;25.096;2023-04-06T01:25:46;15.07;;;10.73;;
76900;SDS011;65859;43.020;25.096;2023-04-06T01:28:13;16.27;;;11.63;;
76900;SDS011;65859;43.020;25.096;2023-04-06T01:30:39;12.88;;;10.23;;
76900;SDS011;65859;43.020;25.096;2023-04-06T01:33:08;12.38;;;10.23;;
76900;SDS011;65859;43.020;25.096;2023-04-06T01:35:34;13.15;;;10.55;;
76900;SDS011;65859;43.020;25.096;2023-04-06T01:38:01;13.98;;;11.32;;
76900;SDS011;65859;43.020;25.096;2023-04-06T01:40:27;12.93;;;10.70;;
76900;SDS011;65859;43.020;25.096;2023-04-06T01:42:54;12.70;;;10.43;;
76900;SDS011;65859;43.020;25.096;2023-04-06T01:45:20;13.85;;;10.70;;
76900;SDS011;65859;43.020;25.096;2023-04-06T01:47:46;13.18;;;10.82;;
76900;SDS011;65859;43.020;25.096;2023-04-06T01:50:13;15.23;;;11.27;;
76900;SDS011;65859;43.020;25.096;2023-04-06T01:52:39;16.45;;;11.50;;
76900;SDS011;65859;43.020;25.096;2023-04-06T01:55:06;14.02;;;11.18;;
76900;SDS011;65859;43.020;25.096;2023-04-06T01:57:32;13.43;;;10.52;;
76900;SDS011;65859;43.020;25.096;2023-04-06T02:00:00;14.75;;;11.00;;
76900;SDS011;65859;43.020;25.096;2023-04-06T02:02:26;13.43;;;11.40;;
76900;SDS011;65859;43.020;25.096;2023-04-06T02:04:53;16.15;;;12.63;;
76900;SDS011;65859;43.020;25.096;2023-04-06T02:07:20;15.52;;;11.20;;
76900;SDS011;65859;43.020;25.096;2023-04-06T02:09:46;18.25;;;12.55;;
76900;SDS011;65859;43.020;25.096;2023-04-06T02:12:12;17.25;;;12.13;;
76900;SDS011;65859;43.020;25.096;2023-04-06T02:14:38;18.83;;;13.90;;
76900;SDS011;65859;43.020;25.096;2023-04-06T02:17:05;20.30;;;12.45;;
76900;SDS011;65859;43.020;25.096;2023-04-06T02:19:31;19.42;;;12.60;;
76900;SDS011;65859;43.020;25.096;2023-04-06T02:21:58;15.73;;;11.85;;
76900;SDS011;65859;43.020;25.096;2023-04-06T02:24:24;15.23;;;11.10;;
76900;SDS011;65859;43.020;25.096;2023-04-06T02:26:50;14.25;;;10.20;;
76900;SDS011;65859;43.020;25.096;2023-04-06T02:29:16;14.30;;;9.90;;
76900;SDS011;65859;43.020;25.096;2023-04-06T02:31:43;14.52;;;9.98;;
76900;SDS011;65859;43.020;25.096;2023-04-06T02:34:09;11.35;;;8.95;;
76900;SDS011;65859;43.020;25.096;2023-04-06T02:36:38;11.55;;;9.70;;
76900;SDS011;65859;43.020;25.096;2023-04-06T02:39:04;14.55;;;9.48;;
76900;SDS011;65859;43.020;25.096;2023-04-06T02:41:31;12.77;;;10.02;;
76900;SDS011;65859;43.020;25.096;2023-04-06T02:43:57;12.32;;;9.60;;
76900;SDS011;65859;43.020;25.096;2023-04-06T02:46:23;11.40;;;9.02;;
76900;SDS011;65859;43.020;25.096;2023-04-06T02:48:50;13.45;;;10.43;;
76900;SDS011;65859;43.020;25.096;2023-04-06T02:51:16;17.25;;;11.45;;
76900;SDS011;65859;43.020;25.096;2023-04-06T02:53:42;14.50;;;9.68;;
76900;SDS011;65859;43.020;25.096;2023-04-06T02:56:09;13.90;;;10.60;;
76900;SDS011;65859;43.020;25.096;2023-04-06T02:58:35;14.63;;;10.98;;
76900;SDS011;65859;43.020;25.096;2023-04-06T03:01:02;15.48;;;10.68;;
76900;SDS011;65859;43.020;25.096;2023-04-06T03:03:28;18.65;;;11.50;;
76900;SDS011;65859;43.020;25.096;2023-04-06T03:05:55;16.42;;;11.15;;
76900;SDS011;65859;43.020;25.096;2023-04-06T03:08:24;16.33;;;11.63;;
76900;SDS011;65859;43.020;25.096;2023-04-06T03:10:51;20.05;;;12.57;;
76900;SDS011;65859;43.020;25.096;2023-04-06T03:13:17;12.82;;;10.35;;
76900;SDS011;65859;43.020;25.096;2023-04-06T03:15:43;14.50;;;11.23;;
76900;SDS011;65859;43.020;25.096;2023-04-06T03:18:10;13.98;;;10.35;;
76900;SDS011;65859;43.020;25.096;2023-04-06T03:20:36;14.40;;;11.80;;
76900;SDS011;65859;43.020;25.096;2023-04-06T03:23:02;18.08;;;12.05;;
76900;SDS011;65859;43.020;25.096;2023-04-06T03:25:29;12.98;;;10.13;;
76900;SDS011;65859;43.020;25.096;2023-04-06T03:27:55;14.05;;;10.20;;
76900;SDS011;65859;43.020;25.096;2023-04-06T03:30:22;12.23;;;9.75;;
76900;SDS011;65859;43.020;25.096;2023-04-06T03:32:48;11.73;;;9.43;;
76900;SDS011;65859;43.020;25.096;2023-04-06T03:35:15;12.05;;;9.48;;
76900;SDS011;65859;43.020;25.096;2023-04-06T03:37:44;12.40;;;9.68;;
76900;SDS011;65859;43.020;25.096;2023-04-06T03:40:12;17.60;;;11.63;;
76900;SDS011;65859;43.020;25.096;2023-04-06T03:42:39;18.00;;;12.80;;
76900;SDS011;65859;43.020;25.096;2023-04-06T03:45:05;18.45;;;12.80;;
76900;SDS011;65859;43.020;25.096;2023-04-06T03:47:35;15.80;;;11.23;;
76900;SDS011;65859;43.020;25.096;2023-04-06T03:50:08;13.70;;;9.50;;
76900;SDS011;65859;43.020;25.096;2023-04-06T03:52:35;17.10;;;10.80;;
76900;SDS011;65859;43.020;25.096;2023-04-06T03:55:01;17.38;;;11.48;;
76900;SDS011;65859;43.020;25.096;2023-04-06T03:57:28;16.98;;;12.02;;
76900;SDS011;65859;43.020;25.096;2023-04-06T03:59:54;17.23;;;11.23;;
76900;SDS011;65859;43.020;25.096;2023-04-06T04:02:21;17.58;;;11.50;;
76900;SDS011;65859;43.020;25.096;2023-04-06T04:04:49;15.10;;;11.18;;
76900;SDS011;65859;43.020;25.096;2023-04-06T04:07:15;16.42;;;12.00;;
76900;SDS011;65859;43.020;25.096;2023-04-06T04:09:42;24.25;;;16.85;;
76900;SDS011;65859;43.020;25.096;2023-04-06T04:12:09;19.33;;;11.93;;
76900;SDS011;65859;43.020;25.096;2023-04-06T04:14:36;21.92;;;16.48;;
76900;SDS011;65859;43.020;25.096;2023-04-06T04:17:02;20.13;;;13.88;;
76900;SDS011;65859;43.020;25.096;2023-04-06T04:19:28;19.42;;;12.38;;
76900;SDS011;65859;43.020;25.096;2023-04-06T04:21:54;19.20;;;12.30;;
76900;SDS011;65859;43.020;25.096;2023-04-06T04:24:21;17.83;;;12.25;;
76900;SDS011;65859;43.020;25.096;2023-04-06T04:26:47;18.17;;;12.80;;
76900;SDS011;65859;43.020;25.096;2023-04-06T04:29:13;18.77;;;11.77;;
76900;SDS011;65859;43.020;25.096;2023-04-06T04:31:40;17.00;;;12.20;;
76900;SDS011;65859;43.020;25.096;2023-04-06T04:34:06;17.25;;;12.32;;
76900;SDS011;65859;43.020;25.096;2023-04-06T04:36:33;19.83;;;11.77;;
76900;SDS011;65859;43.020;25.096;2023-04-06T04:38:59;27.40;;;16.33;;
76900;SDS011;65859;43.020;25.096;2023-04-06T04:41:26;22.13;;;12.98;;
76900;SDS011;65859;43.020;25.096;2023-04-06T04:43:54;22.63;;;13.18;;
76900;SDS011;65859;43.020;25.096;2023-04-06T04:46:20;20.20;;;12.88;;
76900;SDS011;65859;43.020;25.096;2023-04-06T04:48:46;20.23;;;13.55;;
76900;SDS011;65859;43.020;25.096;2023-04-06T04:51:13;19.58;;;13.32;;
76900;SDS011;65859;43.020;25.096;2023-04-06T04:53:39;20.98;;;12.70;;
76900;SDS011;65859;43.020;25.096;2023-04-06T04:56:05;18.35;;;11.70;;
76900;SDS011;65859;43.020;25.096;2023-04-06T04:58:32;14.50;;;11.15;;
76900;SDS011;65859;43.020;25.096;2023-04-06T05:00:58;16.85;;;11.48;;
76900;SDS011;65859;43.020;25.096;2023-04-06T05:03:25;13.55;;;10.93;;
76900;SDS011;65859;43.020;25.096;2023-04-06T05:05:52;15.27;;;11.60;;
76900;SDS011;65859;43.020;25.096;2023-04-06T05:08:18;19.42;;;12.00;;
76900;SDS011;65859;43.020;25.096;2023-04-06T05:10:45;14.95;;;11.32;;
76900;SDS011;65859;43.020;25.096;2023-04-06T05:13:13;16.17;;;12.00;;
76900;SDS011;65859;43.020;25.096;2023-04-06T05:15:41;19.70;;;12.60;;
76900;SDS011;65859;43.020;25.096;2023-04-06T05:18:07;18.58;;;13.32;;
76900;SDS011;65859;43.020;25.096;2023-04-06T05:20:35;33.75;;;17.70;;
76900;SDS011;65859;43.020;25.096;2023-04-06T05:23:01;57.63;;;26.83;;
76900;SDS011;65859;43.020;25.096;2023-04-06T05:25:28;49.20;;;27.55;;
76900;SDS011;65859;43.020;25.096;2023-04-06T05:27:54;12.15;;;9.20;;
76900;SDS011;65859;43.020;25.096;2023-04-06T05:30:21;10.00;;;7.85;;
76900;SDS011;65859;43.020;25.096;2023-04-06T05:32:47;11.68;;;7.78;;
76900;SDS011;65859;43.020;25.096;2023-04-06T05:35:14;9.20;;;7.32;;
76900;SDS011;65859;43.020;25.096;2023-04-06T05:37:42;13.23;;;7.75;;
76900;SDS011;65859;43.020;25.096;2023-04-06T05:40:09;12.52;;;8.85;;
76900;SDS011;65859;43.020;25.096;2023-04-06T05:42:39;15.65;;;9.43;;
76900;SDS011;65859;43.020;25.096;2023-04-06T05:45:07;9.93;;;8.10;;
76900;SDS011;65859;43.020;25.096;2023-04-06T05:47:37;11.50;;;8.02;;
76900;SDS011;65859;43.020;25.096;2023-04-06T05:50:03;11.43;;;7.68;;
76900;SDS011;65859;43.020;25.096;2023-04-06T05:52:30;9.93;;;7.63;;
76900;SDS011;65859;43.020;25.096;2023-04-06T05:54:56;8.68;;;6.90;;
76900;SDS011;65859;43.020;25.096;2023-04-06T05:57:23;10.50;;;7.53;;
76900;SDS011;65859;43.020;25.096;2023-04-06T05:59:49;11.65;;;8.07;;
76900;SDS011;65859;43.020;25.096;2023-04-06T06:02:15;10.10;;;7.25;;
76900;SDS011;65859;43.020;25.096;2023-04-06T06:04:41;10.77;;;7.63;;
76900;SDS011;65859;43.020;25.096;2023-04-06T06:07:08;11.57;;;7.43;;
76900;SDS011;65859;43.020;25.096;2023-04-06T06:09:34;9.85;;;7.45;;
76900;SDS011;65859;43.020;25.096;2023-04-06T06:12:00;8.43;;;7.03;;
76900;SDS011;65859;43.020;25.096;2023-04-06T06:14:27;10.63;;;7.47;;
76900;SDS011;65859;43.020;25.096;2023-04-06T06:16:56;11.27;;;6.93;;
76900;SDS011;65859;43.020;25.096;2023-04-06T06:19:23;12.10;;;7.63;;
76900;SDS011;65859;43.020;25.096;2023-04-06T06:21:50;9.20;;;7.00;;
76900;SDS011;65859;43.020;25.096;2023-04-06T06:24:16;11.75;;;7.25;;
76900;SDS011;65859;43.020;25.096;2023-04-06T06:26:43;8.63;;;6.65;;
76900;SDS011;65859;43.020;25.096;2023-04-06T06:29:09;11.07;;;8.00;;
76900;SDS011;65859;43.020;25.096;2023-04-06T06:31:35;12.75;;;8.35;;
76900;SDS011;65859;43.020;25.096;2023-04-06T06:34:01;10.27;;;8.35;;
76900;SDS011;65859;43.020;25.096;2023-04-06T06:36:28;14.13;;;7.43;;
76900;SDS011;65859;43.020;25.096;2023-04-06T06:38:56;10.75;;;6.43;;
76900;SDS011;65859;43.020;25.096;2023-04-06T06:41:25;9.02;;;6.38;;
76900;SDS011;65859;43.020;25.096;2023-04-06T06:43:51;8.30;;;6.22;;
76900;SDS011;65859;43.020;25.096;2023-04-06T06:46:18;12.10;;;6.70;;
76900;SDS011;65859;43.020;25.096;2023-04-06T06:48:45;9.88;;;6.75;;
76900;SDS011;65859;43.020;25.096;2023-04-06T06:51:12;9.40;;;6.95;;
76900;SDS011;65859;43.020;25.096;2023-04-06T06:53:39;9.10;;;6.82;;
76900;SDS011;65859;43.020;25.096;2023-04-06T06:56:05;8.85;;;6.35;;
76900;SDS011;65859;43.020;25.096;2023-04-06T06:58:32;9.35;;;6.30;;
76900;SDS011;65859;43.020;25.096;2023-04-06T07:00:58;8.52;;;6.20;;
76900;SDS011;65859;43.020;25.096;2023-04-06T07:03:25;8.60;;;7.25;;
76900;SDS011;65859;43.020;25.096;2023-04-06T07:05:52;10.13;;;7.00;;
76900;SDS011;65859;43.020;25.096;2023-04-06T07:08:23;8.55;;;6.25;;
76900;SDS011;65859;43.020;25.096;2023-04-06T07:10:50;7.88;;;6.55;;
76900;SDS011;65859;43.020;25.096;2023-04-06T07:13:23;11.52;;;7.32;;
76900;SDS011;65859;43.020;25.096;2023-04-06T07:15:51;10.90;;;7.28;;
76900;SDS011;65859;43.020;25.096;2023-04-06T07:18:18;10.05;;;6.75;;
76900;SDS011;65859;43.020;25.096;2023-04-06T07:20:45;7.90;;;6.32;;
76900;SDS011;65859;43.020;25.096;2023-04-06T07:23:13;11.02;;;6.60;;
76900;SDS011;65859;43.020;25.096;2023-04-06T07:25:40;11.63;;;6.80;;
76900;SDS011;65859;43.020;25.096;2023-04-06T07:28:07;8.68;;;6.60;;
76900;SDS011;65859;43.020;25.096;2023-04-06T07:30:33;10.15;;;6.80;;
76900;SDS011;65859;43.020;25.096;2023-04-06T07:33:00;9.20;;;6.10;;
76900;SDS011;65859;43.020;25.096;2023-04-06T07:35:26;9.63;;;6.55;;
76900;SDS011;65859;43.020;25.096;2023-04-06T07:37:55;9.57;;;6.70;;
76900;SDS011;65859;43.020;25.096;2023-04-06T07:40:21;9.88;;;6.53;;
76900;SDS011;65859;43.020;25.096;2023-04-06T07:42:48;9.98;;;6.95;;
76900;SDS011;65859;43.020;25.096;2023-04-06T07:45:15;11.57;;;6.55;;
76900;SDS011;65859;43.020;25.096;2023-04-06T07:47:41;8.00;;;6.22;;
76900;SDS011;65859;43.020;25.096;2023-04-06T07:50:08;8.70;;;6.75;;
76900;SDS011;65859;43.020;25.096;2023-04-06T07:52:35;9.48;;;6.93;;
76900;SDS011;65859;43.020;25.096;2023-04-06T07:55:03;9.95;;;6.95;;
76900;SDS011;65859;43.020;25.096;2023-04-06T07:57:29;10.07;;;7.00;;
76900;SDS011;65859;43.020;25.096;2023-04-06T07:59:56;12.25;;;6.85;;
76900;SDS011;65859;43.020;25.096;2023-04-06T08:02:22;16.75;;;7.47;;
76900;SDS011;65859;43.020;25.096;2023-04-06T08:04:48;10.23;;;6.82;;
76900;SDS011;65859;43.020;25.096;2023-04-06T08:07:15;12.75;;;7.70;;
76900;SDS011;65859;43.020;25.096;2023-04-06T08:09:42;10.55;;;6.90;;
76900;SDS011;65859;43.020;25.096;2023-04-06T08:12:08;9.95;;;6.82;;
76900;SDS011;65859;43.020;25.096;2023-04-06T08:14:35;10.27;;;7.10;;
76900;SDS011;65859;43.020;25.096;2023-04-06T08:17:01;8.88;;;7.10;;
76900;SDS011;65859;43.020;25.096;2023-04-06T08:19:27;8.93;;;7.20;;
76900;SDS011;65859;43.020;25.096;2023-04-06T08:21:54;9.27;;;6.55;;
76900;SDS011;65859;43.020;25.096;2023-04-06T08:24:20;13.57;;;8.25;;
76900;SDS011;65859;43.020;25.096;2023-04-06T08:26:48;12.05;;;6.65;;
76900;SDS011;65859;43.020;25.096;2023-04-06T08:29:15;12.48;;;7.43;;
76900;SDS011;65859;43.020;25.096;2023-04-06T08:31:42;12.07;;;7.68;;
76900;SDS011;65859;43.020;25.096;2023-04-06T08:34:08;12.38;;;7.78;;
76900;SDS011;65859;43.020;25.096;2023-04-06T08:36:35;10.45;;;7.43;;
76900;SDS011;65859;43.020;25.096;2023-04-06T08:39:01;10.60;;;6.72;;
76900;SDS011;65859;43.020;25.096;2023-04-06T08:41:28;11.60;;;7.05;;
76900;SDS011;65859;43.020;25.096;2023-04-06T08:43:59;9.73;;;6.60;;
76900;SDS011;65859;43.020;25.096;2023-04-06T08:46:26;10.40;;;6.40;;
76900;SDS011;65859;43.020;25.096;2023-04-06T08:49:02;10.00;;;6.78;;
76900;SDS011;65859;43.020;25.096;2023-04-06T08:51:31;13.98;;;6.40;;
76900;SDS011;65859;43.020;25.096;2023-04-06T08:54:00;7.57;;;6.05;;
76900;SDS011;65859;43.020;25.096;2023-04-06T08:56:27;9.73;;;6.82;;
76900;SDS011;65859;43.020;25.096;2023-04-06T08:58:55;8.25;;;6.32;;
76900;SDS011;65859;43.020;25.096;2023-04-06T09:01:26;8.95;;;6.53;;
76900;SDS011;65859;43.020;25.096;2023-04-06T09:03:55;22.77;;;13.05;;
76900;SDS011;65859;43.020;25.096;2023-04-06T09:06:24;7.85;;;7.00;;
76900;SDS011;65859;43.020;25.096;2023-04-06T09:08:52;14.15;;;6.90;;
76900;SDS011;65859;43.020;25.096;2023-04-06T09:11:18;10.75;;;6.20;;
76900;SDS011;65859;43.020;25.096;2023-04-06T09:13:45;7.78;;;6.28;;
76900;SDS011;65859;43.020;25.096;2023-04-06T09:16:19;8.00;;;5.97;;
76900;SDS011;65859;43.020;25.096;2023-04-06T09:18:46;7.32;;;6.38;;
76900;SDS011;65859;43.020;25.096;2023-04-06T09:21:16;7.82;;;5.88;;
76900;SDS011;65859;43.020;25.096;2023-04-06T09:23:44;9.48;;;6.90;;
76900;SDS011;65859;43.020;25.096;2023-04-06T09:26:14;9.48;;;6.70;;
76900;SDS011;65859;43.020;25.096;2023-04-06T09:28:46;9.90;;;7.15;;
76900;SDS011;65859;43.020;25.096;2023-04-06T09:31:21;11.25;;;6.47;;
76900;SDS011;65859;43.020;25.096;2023-04-06T09:33:55;14.52;;;7.78;;
76900;SDS011;65859;43.020;25.096;2023-04-06T09:36:32;7.75;;;5.38;;
76900;SDS011;65859;43.020;25.096;2023-04-06T09:39:01;7.50;;;5.97;;
76900;SDS011;65859;43.020;25.096;2023-04-06T09:41:30;10.57;;;6.10;;
76900;SDS011;65859;43.020;25.096;2023-04-06T09:44:07;7.47;;;5.47;;
76900;SDS011;65859;43.020;25.096;2023-04-06T09:46:36;10.52;;;6.30;;
76900;SDS011;65859;43.020;25.096;2023-04-06T09:49:04;7.10;;;5.40;;
76900;SDS011;65859;43.020;25.096;2023-04-06T09:51:45;7.70;;;5.07;;
76900;SDS011;65859;43.020;25.096;2023-04-06T09:54:21;6.75;;;5.32;;
76900;SDS011;65859;43.020;25.096;2023-04-06T10:06:59;9.18;;;5.50;;
76900;SDS011;65859;43.020;25.096;2023-04-06T10:09:28;8.43;;;5.80;;
76900;SDS011;65859;43.020;25.096;2023-04-06T10:12:09;6.53;;;4.90;;
76900;SDS011;65859;43.020;25.096;2023-04-06T10:14:38;5.75;;;4.80;;
76900;SDS011;65859;43.020;25.096;2023-04-06T10:17:06;8.40;;;4.57;;
76900;SDS011;65859;43.020;25.096;2023-04-06T10:19:34;6.80;;;4.88;;
76900;SDS011;65859;43.020;25.096;2023-04-06T10:22:08;8.57;;;5.10;;
76900;SDS011;65859;43.020;25.096;2023-04-06T10:24:37;6.82;;;5.53;;
76900;SDS011;65859;43.020;25.096;2023-04-06T10:27:04;7.05;;;5.15;;
76900;SDS011;65859;43.020;25.096;2023-04-06T10:29:46;8.10;;;5.70;;
76900;SDS011;65859;43.020;25.096;2023-04-06T10:32:17;11.35;;;5.65;;
76900;SDS011;65859;43.020;25.096;2023-04-06T10:34:43;10.10;;;5.60;;
76900;SDS011;65859;43.020;25.096;2023-04-06T10:37:11;8.10;;;5.22;;
76900;SDS011;65859;43.020;25.096;2023-04-06T10:39:49;5.55;;;4.68;;
76900;SDS011;65859;43.020;25.096;2023-04-06T10:42:35;5.40;;;4.50;;
76900;SDS011;65859;43.020;25.096;2023-04-06T10:45:05;6.88;;;5.05;;
76900;SDS011;65859;43.020;25.096;2023-04-06T10:47:39;12.90;;;8.05;;
76900;SDS011;65859;43.020;25.096;2023-04-06T10:50:06;7.18;;;5.28;;
76900;SDS011;65859;43.020;25.096;2023-04-06T10:52:33;6.68;;;4.82;;
76900;SDS011;65859;43.020;25.096;2023-04-06T10:54:59;7.53;;;5.43;;
76900;SDS011;65859;43.020;25.096;2023-04-06T10:57:29;5.55;;;4.82;;
76900;SDS011;65859;43.020;25.096;2023-04-06T10:59:57;5.70;;;4.57;;
76900;SDS011;65859;43.020;25.096;2023-04-06T11:02:25;6.38;;;5.00;;
76900;SDS011;65859;43.020;25.096;2023-04-06T11:04:58;5.93;;;4.40;;
76900;SDS011;65859;43.020;25.096;2023-04-06T11:07:28;7.15;;;4.57;;
76900;SDS011;65859;43.020;25.096;2023-04-06T11:09:55;5.78;;;4.28;;
76900;SDS011;65859;43.020;25.096;2023-04-06T11:12:26;6.32;;;4.75;;
76900;SDS011;65859;43.020;25.096;2023-04-06T11:14:59;7.18;;;4.50;;
76900;SDS011;65859;43.020;25.096;2023-04-06T11:17:31;7.25;;;5.10;;
76900;SDS011;65859;43.020;25.096;2023-04-06T11:19:59;11.00;;;5.25;;
76900;SDS011;65859;43.020;25.096;2023-04-06T11:22:26;14.18;;;6.05;;
76900;SDS011;65859;43.020;25.096;2023-04-06T11:24:52;8.85;;;6.00;;
76900;SDS011;65859;43.020;25.096;2023-04-06T11:27:29;8.48;;;5.05;;
76900;SDS011;65859;43.020;25.096;2023-04-06T11:29:57;6.53;;;4.82;;
76900;SDS011;65859;43.020;25.096;2023-04-06T11:32:26;8.20;;;5.13;;
76900;SDS011;65859;43.020;25.096;2023-04-06T11:34:52;5.85;;;4.93;;
76900;SDS011;65859;43.020;25.096;2023-04-06T11:37:19;6.35;;;5.65;;
76900;SDS011;65859;43.020;25.096;2023-04-06T11:39:49;8.07;;;6.25;;
76900;SDS011;65859;43.020;25.096;2023-04-06T11:42:20;7.00;;;5.32;;
76900;SDS011;65859;43.020;25.096;2023-04-06T11:44:57;6.72;;;5.00;;
76900;SDS011;65859;43.020;25.096;2023-04-06T11:47:29;8.60;;;5.93;;
76900;SDS011;65859;43.020;25.096;2023-04-06T11:50:05;7.03;;;4.83;;
76900;SDS011;65859;43.020;25.096;2023-04-06T11:52:36;6.53;;;5.75;;
76900;SDS011;65859;43.020;25.096;2023-04-06T11:55:10;6.32;;;4.68;;
76900;SDS011;65859;43.020;25.096;2023-04-06T11:57:38;7.20;;;4.80;;
76900;SDS011;65859;43.020;25.096;2023-04-06T12:00:05;7.30;;;4.97;;
76900;SDS011;65859;43.020;25.096;2023-04-06T12:02:35;6.90;;;4.93;;
76900;SDS011;65859;43.020;25.096;2023-04-06T12:05:02;7.45;;;4.40;;
76900;SDS011;65859;43.020;25.096;2023-04-06T12:07:30;4.95;;;4.45;;
76900;SDS011;65859;43.020;25.096;2023-04-06T12:09:58;11.27;;;8.00;;
76900;SDS011;65859;43.020;25.096;2023-04-06T12:12:25;14.82;;;8.43;;
76900;SDS011;65859;43.020;25.096;2023-04-06T12:14:51;14.50;;;7.28;;
76900;SDS011;65859;43.020;25.096;2023-04-06T12:17:18;22.88;;;11.68;;
76900;SDS011;65859;43.020;25.096;2023-04-06T12:19:45;21.20;;;13.52;;
76900;SDS011;65859;43.020;25.096;2023-04-06T12:22:11;8.75;;;4.85;;
76900;SDS011;65859;43.020;25.096;2023-04-06T12:24:38;10.00;;;6.25;;
76900;SDS011;65859;43.020;25.096;2023-04-06T12:27:04;6.40;;;5.35;;
76900;SDS011;65859;43.020;25.096;2023-04-06T12:29:30;7.70;;;5.25;;
76900;SDS011;65859;43.020;25.096;2023-04-06T12:31:57;8.02;;;4.45;;
76900;SDS011;65859;43.020;25.096;2023-04-06T12:34:27;4.80;;;3.92;;
76900;SDS011;65859;43.020;25.096;2023-04-06T12:36:53;7.45;;;4.32;;
76900;SDS011;65859;43.020;25.096;2023-04-06T12:39:21;7.63;;;5.95;;
76900;SDS011;65859;43.020;25.096;2023-04-06T12:41:47;6.38;;;3.95;;
76900;SDS011;65859;43.020;25.096;2023-04-06T12:44:14;9.40;;;5.78;;
76900;SDS011;65859;43.020;25.096;2023-04-06T12:46:40;5.93;;;4.35;;
76900;SDS011;65859;43.020;25.096;2023-04-06T12:49:08;5.43;;;4.45;;
76900;SDS011;65859;43.020;25.096;2023-04-06T12:51:35;5.07;;;3.70;;
76900;SDS011;65859;43.020;25.096;2023-04-06T12:54:01;9.00;;;4.78;;
76900;SDS011;65859;43.020;25.096;2023-04-06T12:56:27;6.43;;;4.10;;
76900;SDS011;65859;43.020;25.096;2023-04-06T12:58:54;6.32;;;5.03;;
76900;SDS011;65859;43.020;25.096;2023-04-06T13:01:21;4.90;;;4.18;;
76900;SDS011;65859;43.020;25.096;2023-04-06T13:03:47;5.72;;;4.90;;
76900;SDS011;65859;43.020;25.096;2023-04-06T13:06:15;5.00;;;4.00;;
76900;SDS011;65859;43.020;25.096;2023-04-06T13:08:41;8.48;;;4.22;;
76900;SDS011;65859;43.020;25.096;2023-04-06T13:11:08;8.82;;;4.55;;
76900;SDS011;65859;43.020;25.096;2023-04-06T13:13:34;6.63;;;4.25;;
76900;SDS011;65859;43.020;25.096;2023-04-06T13:16:02;7.03;;;3.85;;
76900;SDS011;65859;43.020;25.096;2023-04-06T13:18:31;6.28;;;4.10;;
76900;SDS011;65859;43.020;25.096;2023-04-06T13:20:59;8.68;;;4.57;;
76900;SDS011;65859;43.020;25.096;2023-04-06T13:23:26;7.57;;;4.82;;
76900;SDS011;65859;43.020;25.096;2023-04-06T13:26:02;5.40;;;4.13;;
76900;SDS011;65859;43.020;25.096;2023-04-06T13:28:30;9.07;;;4.38;;
76900;SDS011;65859;43.020;25.096;2023-04-06T13:30:58;6.38;;;5.07;;
76900;SDS011;65859;43.020;25.096;2023-04-06T13:33:26;10.75;;;5.45;;
76900;SDS011;65859;43.020;25.096;2023-04-06T13:35:53;14.48;;;6.93;;
76900;SDS011;65859;43.020;25.096;2023-04-06T13:38:21;6.97;;;5.25;;
76900;SDS011;65859;43.020;25.096;2023-04-06T13:40:49;8.18;;;5.60;;
76900;SDS011;65859;43.020;25.096;2023-04-06T13:43:15;9.23;;;6.60;;
76900;SDS011;65859;43.020;25.096;2023-04-06T13:45:54;10.98;;;7.03;;
76900;SDS011;65859;43.020;25.096;2023-04-06T13:48:21;9.55;;;7.13;;
76900;SDS011;65859;43.020;25.096;2023-04-06T13:50:48;10.43;;;6.07;;
76900;SDS011;65859;43.020;25.096;2023-04-06T13:53:14;12.00;;;8.60;;
76900;SDS011;65859;43.020;25.096;2023-04-06T13:55:40;10.05;;;5.72;;
76900;SDS011;65859;43.020;25.096;2023-04-06T13:58:07;9.73;;;6.05;;
76900;SDS011;65859;43.020;25.096;2023-04-06T14:00:33;8.63;;;5.38;;
76900;SDS011;65859;43.020;25.096;2023-04-06T14:03:00;9.82;;;5.50;;
76900;SDS011;65859;43.020;25.096;2023-04-06T14:05:30;10.30;;;5.45;;
76900;SDS011;65859;43.020;25.096;2023-04-06T14:07:59;12.25;;;9.18;;
76900;SDS011;65859;43.020;25.096;2023-04-06T14:10:28;11.32;;;7.43;;
76900;SDS011;65859;43.020;25.096;2023-04-06T14:12:54;18.25;;;10.57;;
76900;SDS011;65859;43.020;25.096;2023-04-06T14:15:21;40.28;;;16.75;;
76900;SDS011;65859;43.020;25.096;2023-04-06T14:17:49;109.93;;;30.92;;
76900;SDS011;65859;43.020;25.096;2023-04-06T14:20:16;12.73;;;6.72;;
76900;SDS011;65859;43.020;25.096;2023-04-06T14:22:43;8.30;;;5.90;;
76900;SDS011;65859;43.020;25.096;2023-04-06T14:25:11;8.50;;;6.88;;
76900;SDS011;65859;43.020;25.096;2023-04-06T14:27:38;8.15;;;6.13;;
76900;SDS011;65859;43.020;25.096;2023-04-06T14:30:04;6.88;;;6.10;;
76900;SDS011;65859;43.020;25.096;2023-04-06T14:32:31;8.80;;;7.13;;
76900;SDS011;65859;43.020;25.096;2023-04-06T14:34:58;9.70;;;5.55;;